Time,TemperatureF,DewpointF,PressureIn,WindDirection,WindDirectionDegrees,WindSpeedMPH,WindSpeedGustMPH,Humidity,HourlyPrecipIn,Conditions,Clouds,dailyrainin,SoftwareType,DateUTC
2013-05-29 00:01:00,72.4,69.0,29.76,SE,124,0.0,0.0,89,0.00,RA,SKC,0.00,WeatherDisplay:10.37,2013-05-29 05:01:00,
2013-05-29 00:06:00,72.3,68.9,29.76,SE,124,0.0,0.0,89,0.00,RA,SKC,0.00,WeatherDisplay:10.37,2013-05-29 05:06:00,
2013-05-29 00:11:00,72.2,69.1,29.76,SE,124,0.0,0.0,90,0.00,CLR,SKC,0.00,WeatherDisplay:10.37,2013-05-29 05:11:00,
2013-05-29 00:21:00,72.0,68.9,29.76,SE,124,0.0,0.0,90,0.00,CLR,SKC,0.00,WeatherDisplay:10.37,2013-05-29 05:21:00,
2013-05-29 00:26:00,71.9,69.1,29.76,SE,124,0.0,0.0,91,0.00,CLR,SKC,0.00,WeatherDisplay:10.37,2013-05-29 05:26:00,
2013-05-29 00:31:00,71.9,69.1,29.76,SE,124,0.0,2.0,91,0.00,CLR,SKC,0.00,WeatherDisplay:10.37,2013-05-29 05:31:00,
2013-05-29 00:36:00,71.9,69.2,29.76,SE,124,0.0,2.0,91,0.00,CLR,SKC,0.00,WeatherDisplay:10.37,2013-05-29 05:36:00,
2013-05-29 00:41:00,71.9,69.1,29.76,SE,124,0.0,0.0,91,0.00,CLR,SKC,0.00,WeatherDisplay:10.37,2013-05-29 05:41:00,
2013-05-29 00:46:00,71.9,69.1,29.76,SE,131,0.0,0.0,91,0.00,CLR,SKC,0.00,WeatherDisplay:10.37,2013-05-29 05:46:00,
2013-05-29 00:51:00,71.9,68.8,29.77,SE,131,0.0,2.0,90,0.00,CLR,SKC,0.00,WeatherDisplay:10.37,2013-05-29 05:51:00,
2013-05-29 01:01:00,72.1,69.0,29.76,ESE,122,0.0,5.0,90,0.00,CLR,SKC,0.00,WeatherDisplay:10.37,2013-05-29 06:01:00,
2013-05-29 01:06:00,72.2,68.8,29.76,South,177,0.0,5.0,89,0.00,CLR,SKC,0.00,WeatherDisplay:10.37,2013-05-29 06:06:00,
2013-05-29 01:11:00,72.2,68.8,29.76,South,181,0.0,2.0,89,0.00,CLR,SKC,0.00,WeatherDisplay:10.37,2013-05-29 06:11:00,
2013-05-29 01:16:00,72.2,68.8,29.76,SE,141,0.0,3.0,89,0.00,CLR,SKC,0.00,WeatherDisplay:10.37,2013-05-29 06:16:00,
2013-05-29 01:21:00,72.2,68.8,29.76,East,97,0.0,3.0,89,0.00,CLR,SKC,0.00,WeatherDisplay:10.37,2013-05-29 06:21:00,
2013-05-29 01:31:00,72.1,69.0,29.77,East,91,1.0,3.0,90,0.00,CLR,SKC,0.00,WeatherDisplay:10.37,2013-05-29 06:31:00,
2013-05-29 01:41:00,71.9,68.5,29.76,ESE,110,0.0,5.0,89,0.00,CLR,SKC,0.00,WeatherDisplay:10.37,2013-05-29 06:41:00,
2013-05-29 01:46:00,71.8,68.4,29.76,SE,124,0.0,5.0,89,0.00,CLR,SKC,0.00,WeatherDisplay:10.37,2013-05-29 06:46:00,
2013-05-29 01:51:00,71.6,68.2,29.76,SSE,165,2.0,5.0,89,0.00,CLR,SKC,0.00,WeatherDisplay:10.37,2013-05-29 06:51:00,
2013-05-29 02:01:00,71.0,67.6,29.76,ESE,110,2.0,7.0,89,0.00,CLR,SKC,0.00,WeatherDisplay:10.37,2013-05-29 07:01:00,
2013-05-29 02:06:00,70.8,67.4,29.75,SE,130,2.0,7.0,89,0.00,CLR,SKC,0.00,WeatherDisplay:10.37,2013-05-29 07:06:00,
2013-05-29 02:11:00,70.6,67.2,29.75,SE,126,1.0,5.0,89,0.00,CLR,SKC,0.00,WeatherDisplay:10.37,2013-05-29 07:11:00,
2013-05-29 02:21:00,70.3,66.9,29.75,ESE,104,2.0,7.0,89,0.00,CLR,SKC,0.00,WeatherDisplay:10.37,2013-05-29 07:21:00,
2013-05-29 02:26:00,70.3,66.9,29.74,SE,145,5.0,14.0,89,0.00,CLR,SKC,0.00,WeatherDisplay:10.37,2013-05-29 07:26:00,
2013-05-29 02:31:00,70.1,66.7,29.74,SSE,150,2.0,10.0,89,0.00,CLR,SKC,0.00,WeatherDisplay:10.37,2013-05-29 07:31:00,
2013-05-29 02:36:00,70.0,66.6,29.74,SSE,168,5.0,10.0,89,0.00,CLR,SKC,0.00,WeatherDisplay:10.37,2013-05-29 07:36:00,
2013-05-29 02:41:00,70.0,66.9,29.74,SSE,161,3.0,16.0,90,0.00,CLR,SKC,0.00,WeatherDisplay:10.37,2013-05-29 07:41:00,
2013-05-29 02:51:00,70.1,67.3,29.73,SE,125,3.0,10.0,91,0.00,CLR,SKC,0.00,WeatherDisplay:10.37,2013-05-29 07:51:00,
2013-05-29 03:01:00,70.3,67.6,29.73,SSE,149,7.0,13.0,91,0.00,CLR,SKC,0.00,WeatherDisplay:10.37,2013-05-29 08:01:00,
2013-05-29 03:06:00,70.5,67.7,29.73,SSE,147,2.0,13.0,91,0.00,CLR,SKC,0.00,WeatherDisplay:10.37,2013-05-29 08:06:00,
2013-05-29 03:11:00,70.7,67.6,29.73,SSE,147,6.0,16.0,90,0.00,CLR,SKC,0.00,WeatherDisplay:10.37,2013-05-29 08:11:00,
2013-05-29 03:21:00,71.4,67.3,29.73,SSE,155,5.0,16.0,87,0.00,CLR,SKC,0.00,WeatherDisplay:10.37,2013-05-29 08:21:00,
2013-05-29 03:31:00,72.0,67.2,29.73,SSE,158,6.0,15.0,85,0.00,CLR,SKC,0.00,WeatherDisplay:10.37,2013-05-29 08:31:00,
2013-05-29 03:41:00,72.3,66.9,29.72,SE,145,12.0,21.0,83,0.00,CLR,SKC,0.00,WeatherDisplay:10.37,2013-05-29 08:41:00,
2013-05-29 03:51:00,72.5,66.7,29.72,South,171,6.0,18.0,82,0.00,CLR,SKC,0.00,WeatherDisplay:10.37,2013-05-29 08:51:00,
2013-05-29 04:01:00,72.7,66.5,29.72,SSE,156,12.0,18.0,81,0.00,CLR,SKC,0.00,WeatherDisplay:10.37,2013-05-29 09:01:00,
2013-05-29 04:06:00,72.7,66.5,29.72,South,172,8.0,18.0,81,0.00,CLR,SKC,0.00,WeatherDisplay:10.37,2013-05-29 09:06:00,
2013-05-29 04:11:00,72.5,66.4,29.72,SSE,156,9.0,18.0,81,0.00,CLR,SKC,0.00,WeatherDisplay:10.37,2013-05-29 09:11:00,
2013-05-29 04:16:00,72.3,66.5,29.71,SSE,151,7.0,16.0,82,0.00,CLR,SKC,0.00,WeatherDisplay:10.37,2013-05-29 09:16:00,
2013-05-29 04:21:00,72.2,66.4,29.71,SSE,147,8.0,22.0,82,0.00,CLR,SKC,0.00,WeatherDisplay:10.37,2013-05-29 09:21:00,
2013-05-29 04:26:00,72.2,66.4,29.71,SE,141,3.0,13.0,82,0.00,CLR,SKC,0.00,WeatherDisplay:10.37,2013-05-29 09:26:00,
2013-05-29 04:31:00,72.1,66.0,29.71,SSE,152,7.0,21.0,81,0.00,CLR,SKC,0.00,WeatherDisplay:10.37,2013-05-29 09:31:00,
2013-05-29 04:41:00,71.9,65.8,29.71,South,182,8.0,18.0,81,0.00,CLR,SKC,0.00,WeatherDisplay:10.37,2013-05-29 09:41:00,
2013-05-29 04:51:00,71.8,66.0,29.72,SE,146,6.0,12.0,82,0.00,CLR,SKC,0.00,WeatherDisplay:10.37,2013-05-29 09:51:00,
2013-05-29 05:01:00,71.6,65.8,29.71,SE,146,7.0,19.0,82,0.00,CLR,SKC,0.00,WeatherDisplay:10.37,2013-05-29 10:01:00,
2013-05-29 05:06:00,71.5,65.7,29.71,SE,140,6.0,13.0,82,0.00,CLR,SKC,0.00,WeatherDisplay:10.37,2013-05-29 10:06:00,
2013-05-29 05:11:00,71.5,65.7,29.71,SE,145,6.0,16.0,82,0.00,CLR,SKC,0.00,WeatherDisplay:10.37,2013-05-29 10:11:00,
2013-05-29 05:21:00,71.4,66.0,29.71,South,169,12.0,19.0,83,0.00,CLR,SKC,0.00,WeatherDisplay:10.37,2013-05-29 10:21:00,
2013-05-29 05:31:00,71.2,65.8,29.72,SSE,157,2.0,10.0,83,0.00,CLR,SKC,0.00,WeatherDisplay:10.37,2013-05-29 10:31:00,
2013-05-29 05:41:00,71.2,65.8,29.72,South,182,8.0,15.0,83,0.00,CLR,SKC,0.00,WeatherDisplay:10.37,2013-05-29 10:41:00,
2013-05-29 05:51:00,71.1,65.7,29.72,SSE,159,6.0,13.0,83,0.00,CLR,SKC,0.00,WeatherDisplay:10.37,2013-05-29 10:51:00,
2013-05-29 05:56:00,71.0,65.6,29.73,SSE,159,5.0,13.0,83,0.00,CLR,SKC,0.00,WeatherDisplay:10.37,2013-05-29 10:56:00,
2013-05-29 06:01:00,70.9,65.5,29.73,SSE,161,3.0,13.0,83,0.00,CLR,SKC,0.00,WeatherDisplay:10.37,2013-05-29 11:01:00,
2013-05-29 06:06:00,70.9,65.5,29.73,SSE,158,5.0,13.0,83,0.00,CLR,SKC,0.00,WeatherDisplay:10.37,2013-05-29 11:06:00,
2013-05-29 06:11:00,70.9,65.5,29.73,South,178,6.0,16.0,83,0.00,CLR,SKC,0.00,WeatherDisplay:10.37,2013-05-29 11:11:00,
2013-05-29 06:16:00,70.8,65.7,29.73,SSE,166,6.0,13.0,84,0.00,CLR,SKC,0.00,WeatherDisplay:10.37,2013-05-29 11:16:00,
2013-05-29 06:21:00,70.8,65.7,29.73,SSE,150,2.0,13.0,84,0.00,CLR,SKC,0.00,WeatherDisplay:10.37,2013-05-29 11:21:00,
2013-05-29 06:26:00,70.8,65.7,29.73,SSE,161,5.0,13.0,84,0.00,CLR,SKC,0.00,WeatherDisplay:10.37,2013-05-29 11:26:00,
2013-05-29 06:31:00,70.8,65.7,29.73,South,173,5.0,12.0,84,0.00,CLR,SKC,0.00,WeatherDisplay:10.37,2013-05-29 11:31:00,
2013-05-29 06:41:00,70.7,65.6,29.74,South,175,3.0,12.0,84,0.00,CLR,SKC,0.00,WeatherDisplay:10.37,2013-05-29 11:41:00,
2013-05-29 06:51:00,70.6,65.5,29.74,South,171,7.0,15.0,84,0.00,CLR,SKC,0.00,WeatherDisplay:10.37,2013-05-29 11:51:00,
2013-05-29 07:01:00,70.5,65.8,29.73,South,180,1.0,13.0,85,0.00,CLR,SKC,0.00,WeatherDisplay:10.37,2013-05-29 12:01:00,
2013-05-29 07:06:00,70.4,65.7,29.74,SSE,161,5.0,12.0,85,0.00,CLR,SKC,0.00,WeatherDisplay:10.37,2013-05-29 12:06:00,
2013-05-29 07:11:00,70.4,65.7,29.74,SSE,152,1.0,12.0,85,0.00,CLR,SKC,0.00,WeatherDisplay:10.37,2013-05-29 12:11:00,
2013-05-29 07:21:00,70.3,65.9,29.73,SE,142,8.0,13.0,86,0.00,CLR,SKC,0.00,WeatherDisplay:10.37,2013-05-29 12:21:00,
2013-05-29 07:31:00,70.3,65.9,29.73,SSE,161,7.0,13.0,86,0.00,CLR,SKC,0.00,WeatherDisplay:10.37,2013-05-29 12:31:00,
2013-05-29 07:41:00,70.3,65.9,29.72,South,173,5.0,8.0,86,0.00,CLR,SKC,0.00,WeatherDisplay:10.37,2013-05-29 12:41:00,
2013-05-29 07:51:00,70.7,66.3,29.72,SSE,168,5.0,12.0,86,0.00,CLR,SKC,0.00,WeatherDisplay:10.37,2013-05-29 12:51:00,
2013-05-29 07:56:00,71.0,66.2,29.72,South,177,6.0,10.0,85,0.00,CLR,SKC,0.00,WeatherDisplay:10.37,2013-05-29 12:56:00,
2013-05-29 08:06:00,70.8,66.1,29.72,South,191,5.0,12.0,85,0.00,CLR,SKC,0.00,WeatherDisplay:10.37,2013-05-29 13:06:00,
2013-05-29 08:11:00,70.8,66.4,29.72,South,182,2.0,12.0,86,0.00,CLR,SKC,0.00,WeatherDisplay:10.37,2013-05-29 13:11:00,
2013-05-29 08:16:00,71.2,66.8,29.73,SE,145,3.0,13.0,86,0.00,CLR,SKC,0.00,WeatherDisplay:10.37,2013-05-29 13:16:00,
2013-05-29 08:21:00,71.8,67.1,29.73,SSE,158,2.0,13.0,85,0.00,CLR,SKC,0.00,WeatherDisplay:10.37,2013-05-29 13:21:00,
2013-05-29 08:31:00,73.4,67.9,29.73,South,180,2.0,12.0,83,0.00,CLR,SKC,0.00,WeatherDisplay:10.37,2013-05-29 13:31:00,
2013-05-29 08:41:00,74.5,67.9,29.73,SSE,158,3.0,12.0,80,0.00,CLR,SKC,0.00,WeatherDisplay:10.37,2013-05-29 13:41:00,
2013-05-29 08:46:00,75.1,68.5,29.73,SSE,159,5.0,10.0,80,0.00,CLR,SKC,0.00,WeatherDisplay:10.37,2013-05-29 13:46:00,
2013-05-29 08:51:00,75.6,68.6,29.73,SE,143,9.0,18.0,79,0.00,CLR,SKC,0.00,WeatherDisplay:10.37,2013-05-29 13:51:00,
2013-05-29 09:01:00,76.4,69.0,29.73,SSW,211,7.0,20.0,78,0.00,CLR,SKC,0.00,WeatherDisplay:10.37,2013-05-29 14:01:00,
2013-05-29 09:06:00,76.5,68.8,29.74,SSE,153,6.0,18.0,77,0.00,CLR,SKC,0.00,WeatherDisplay:10.37,2013-05-29 14:06:00,
2013-05-29 09:11:00,76.7,68.9,29.73,SSE,148,7.0,13.0,77,0.00,CLR,SKC,0.00,WeatherDisplay:10.37,2013-05-29 14:11:00,
2013-05-29 09:21:00,77.5,69.7,29.73,South,175,6.0,16.0,77,0.00,CLR,SKC,0.00,WeatherDisplay:10.37,2013-05-29 14:21:00,
2013-05-29 09:31:00,77.6,69.0,29.73,SSE,154,8.0,21.0,75,0.00,CLR,SKC,0.00,WeatherDisplay:10.37,2013-05-29 14:31:00,
2013-05-29 09:36:00,77.3,69.2,29.73,South,184,5.0,26.0,76,0.00,CLR,SKC,0.00,WeatherDisplay:10.37,2013-05-29 14:36:00,
2013-05-29 09:41:00,77.4,69.3,29.72,SSE,161,5.0,18.0,76,0.00,CLR,SKC,0.00,WeatherDisplay:10.37,2013-05-29 14:41:00,
2013-05-29 09:46:00,77.7,69.5,29.72,South,175,7.0,18.0,76,0.00,CLR,SKC,0.00,WeatherDisplay:10.37,2013-05-29 14:46:00,
2013-05-29 09:51:00,77.9,69.3,29.72,SSW,203,8.0,24.0,75,0.00,CLR,SKC,0.00,WeatherDisplay:10.37,2013-05-29 14:51:00,
2013-05-29 09:56:00,78.2,69.6,29.71,SW,216,7.0,19.0,75,0.00,CLR,SKC,0.00,WeatherDisplay:10.37,2013-05-29 14:56:00,
2013-05-29 10:01:00,78.5,69.5,29.71,SSW,199,8.0,21.0,74,0.00,CLR,SKC,0.00,WeatherDisplay:10.37,2013-05-29 15:01:00,
2013-05-29 10:06:00,78.4,69.4,29.71,South,190,9.0,20.0,74,0.00,CLR,SKC,0.00,WeatherDisplay:10.37,2013-05-29 15:06:00,
2013-05-29 10:11:00,78.3,69.3,29.71,SW,215,8.0,20.0,74,0.00,CLR,SKC,0.00,WeatherDisplay:10.37,2013-05-29 15:11:00,
2013-05-29 10:21:00,79.0,69.2,29.71,SW,220,14.0,21.0,72,0.00,CLR,SKC,0.00,WeatherDisplay:10.37,2013-05-29 15:21:00,
2013-05-29 10:31:00,78.1,69.2,29.71,SSW,208,9.0,22.0,74,0.00,CLR,SKC,0.00,WeatherDisplay:10.37,2013-05-29 15:31:00,
2013-05-29 10:41:00,78.3,69.7,29.71,South,173,10.0,20.0,75,0.00,CLR,SKC,0.00,WeatherDisplay:10.37,2013-05-29 15:41:00,
2013-05-29 10:51:00,78.8,69.0,29.70,SSW,203,16.0,24.0,72,0.00,CLR,SKC,0.00,WeatherDisplay:10.37,2013-05-29 15:51:00,
2013-05-29 11:01:00,78.4,69.0,29.70,SE,125,10.0,21.0,73,0.00,CLR,SKC,0.00,WeatherDisplay:10.37,2013-05-29 16:01:00,
2013-05-29 11:06:00,77.9,68.9,29.70,South,189,10.0,21.0,74,0.00,CLR,SKC,0.00,WeatherDisplay:10.37,2013-05-29 16:06:00,
2013-05-29 11:11:00,77.5,68.6,29.70,South,187,14.0,21.0,74,0.00,CLR,SKC,0.00,WeatherDisplay:10.37,2013-05-29 16:11:00,
2013-05-29 11:16:00,77.6,69.4,29.70,SE,140,6.0,13.0,76,0.00,CLR,SKC,0.00,WeatherDisplay:10.37,2013-05-29 16:16:00,
2013-05-29 11:21:00,77.8,68.9,29.69,SSE,165,12.0,18.0,74,0.00,CLR,SKC,0.00,WeatherDisplay:10.37,2013-05-29 16:21:00,
2013-05-29 11:31:00,77.8,69.3,29.70,SSW,203,7.0,22.0,75,0.00,CLR,SKC,0.00,WeatherDisplay:10.37,2013-05-29 16:31:00,
2013-05-29 11:36:00,78.3,69.7,29.70,SSW,199,3.0,22.0,75,0.00,CLR,SKC,0.00,WeatherDisplay:10.37,2013-05-29 16:36:00,
2013-05-29 11:41:00,78.6,69.6,29.70,SSW,203,8.0,21.0,74,0.00,CLR,SKC,0.00,WeatherDisplay:10.37,2013-05-29 16:41:00,
2013-05-29 11:46:00,78.6,69.2,29.70,South,173,13.0,24.0,73,0.00,CLR,SKC,0.00,WeatherDisplay:10.37,2013-05-29 16:46:00,
2013-05-29 11:51:00,78.7,69.3,29.70,SSW,194,6.0,21.0,73,0.00,CLR,SKC,0.00,WeatherDisplay:10.37,2013-05-29 16:51:00,
2013-05-29 12:01:00,79.9,69.6,29.70,South,172,14.0,28.0,71,0.00,CLR,SKC,0.00,WeatherDisplay:10.37,2013-05-29 17:01:00,
2013-05-29 12:06:00,80.3,69.2,29.70,SSE,161,12.0,35.0,69,0.00,CLR,SKC,0.00,WeatherDisplay:10.37,2013-05-29 17:06:00,
2013-05-29 12:11:00,80.8,69.6,29.70,South,175,5.0,25.0,69,0.00,CLR,SKC,0.00,WeatherDisplay:10.37,2013-05-29 17:11:00,
2013-05-29 12:21:00,80.8,68.4,29.71,SSW,196,15.0,24.0,66,0.00,CLR,SKC,0.00,WeatherDisplay:10.37,2013-05-29 17:21:00,
2013-05-29 12:26:00,80.1,68.5,29.71,SSW,195,9.0,18.0,68,0.00,CLR,SKC,0.00,WeatherDisplay:10.37,2013-05-29 17:26:00,
2013-05-29 12:31:00,79.6,68.1,29.71,South,189,12.0,20.0,68,0.00,CLR,SKC,0.00,WeatherDisplay:10.37,2013-05-29 17:31:00,
2013-05-29 12:36:00,79.0,68.0,29.71,SSW,192,10.0,22.0,69,0.00,CLR,SKC,0.00,WeatherDisplay:10.37,2013-05-29 17:36:00,
2013-05-29 12:41:00,78.7,68.1,29.71,SSE,164,9.0,22.0,70,0.00,CLR,SKC,0.00,WeatherDisplay:10.37,2013-05-29 17:41:00,
2013-05-29 12:51:00,78.6,68.8,29.71,SSW,197,3.0,12.0,72,0.00,CLR,SKC,0.00,WeatherDisplay:10.37,2013-05-29 17:51:00,
2013-05-29 12:56:00,78.5,68.7,29.71,SSW,194,8.0,21.0,72,0.00,CLR,SKC,0.00,WeatherDisplay:10.37,2013-05-29 17:56:00,
2013-05-29 13:06:00,78.3,68.1,29.71,SSW,210,13.0,27.0,71,0.00,CLR,SKC,0.00,WeatherDisplay:10.37,2013-05-29 18:06:00,
2013-05-29 13:11:00,78.1,68.4,29.71,SW,217,7.0,26.0,72,0.00,CLR,SKC,0.00,WeatherDisplay:10.37,2013-05-29 18:11:00,
2013-05-29 13:21:00,77.9,68.1,29.71,SSW,204,14.0,29.0,72,0.00,CLR,SKC,0.00,WeatherDisplay:10.37,2013-05-29 18:21:00,
2013-05-29 13:26:00,77.7,68.0,29.71,SSW,209,13.0,22.0,72,0.00,CLR,SKC,0.00,WeatherDisplay:10.37,2013-05-29 18:26:00,
2013-05-29 13:31:00,77.5,67.8,29.71,South,178,7.0,19.0,72,0.00,CLR,SKC,0.00,WeatherDisplay:10.37,2013-05-29 18:31:00,
2013-05-29 13:36:00,77.4,67.7,29.71,South,180,7.0,18.0,72,0.00,CLR,SKC,0.00,WeatherDisplay:10.37,2013-05-29 18:36:00,
2013-05-29 13:41:00,77.5,68.1,29.71,South,176,6.0,16.0,73,0.00,CLR,SKC,0.00,WeatherDisplay:10.37,2013-05-29 18:41:00,
2013-05-29 13:51:00,77.6,67.9,29.71,South,186,13.0,21.0,72,0.00,CLR,SKC,0.00,WeatherDisplay:10.37,2013-05-29 18:51:00,
2013-05-29 14:01:00,78.8,69.0,29.70,SSW,194,12.0,22.0,72,0.00,CLR,SKC,0.00,WeatherDisplay:10.37,2013-05-29 19:01:00,
2013-05-29 14:06:00,79.4,68.7,29.70,South,188,14.0,26.0,70,0.00,CLR,SKC,0.00,WeatherDisplay:10.37,2013-05-29 19:06:00,
2013-05-29 14:11:00,79.9,69.2,29.70,SSW,201,12.0,24.0,70,0.00,CLR,SKC,0.00,WeatherDisplay:10.37,2013-05-29 19:11:00,
2013-05-29 14:21:00,79.8,68.3,29.70,WSW,240,13.0,29.0,68,0.00,CLR,SKC,0.00,WeatherDisplay:10.37,2013-05-29 19:21:00,
2013-05-29 14:26:00,79.6,68.1,29.70,South,189,10.0,26.0,68,0.00,CLR,SKC,0.00,WeatherDisplay:10.37,2013-05-29 19:26:00,
2013-05-29 14:31:00,79.7,69.0,29.69,South,176,12.0,19.0,70,0.00,CLR,SKC,0.00,WeatherDisplay:10.37,2013-05-29 19:31:00,
2013-05-29 14:41:00,80.2,69.1,29.69,South,187,9.0,21.0,69,0.00,CLR,SKC,0.00,WeatherDisplay:10.37,2013-05-29 19:41:00,
2013-05-29 14:51:00,80.2,69.5,29.69,SSW,200,10.0,22.0,70,0.00,CLR,SKC,0.00,WeatherDisplay:10.37,2013-05-29 19:51:00,
2013-05-29 14:56:00,80.4,69.3,29.69,SW,215,7.0,18.0,69,0.00,CLR,SKC,0.00,WeatherDisplay:10.37,2013-05-29 19:56:00,
2013-05-29 15:06:00,80.7,69.6,29.68,WSW,239,9.0,21.0,69,0.00,CLR,SKC,0.00,WeatherDisplay:10.37,2013-05-29 20:06:00,
2013-05-29 15:11:00,80.9,69.3,29.68,SSW,194,14.0,21.0,68,0.00,CLR,SKC,0.00,WeatherDisplay:10.37,2013-05-29 20:11:00,
2013-05-29 15:21:00,81.0,69.0,29.67,SSE,165,14.0,29.0,67,0.00,CLR,SKC,0.00,WeatherDisplay:10.37,2013-05-29 20:21:00,
2013-05-29 15:26:00,80.7,68.7,29.67,South,183,10.0,26.0,67,0.00,CLR,SKC,0.00,WeatherDisplay:10.37,2013-05-29 20:26:00,
2013-05-29 15:31:00,80.4,68.4,29.67,SSE,161,10.0,35.0,67,0.00,CLR,SKC,0.00,WeatherDisplay:10.37,2013-05-29 20:31:00,
2013-05-29 15:41:00,79.7,68.2,29.67,SSW,207,12.0,37.0,68,0.00,CLR,SKC,0.00,WeatherDisplay:10.37,2013-05-29 20:41:00,
2013-05-29 15:46:00,79.7,68.2,29.67,SSW,209,15.0,32.0,68,0.00,CLR,SKC,0.00,WeatherDisplay:10.37,2013-05-29 20:46:00,
2013-05-29 15:51:00,79.5,68.5,29.67,SSW,193,14.0,26.0,69,0.00,CLR,SKC,0.00,WeatherDisplay:10.37,2013-05-29 20:51:00,
2013-05-29 16:01:00,79.3,68.3,29.66,SSW,207,16.0,21.0,69,0.00,CLR,SKC,0.00,WeatherDisplay:10.37,2013-05-29 21:01:00,
2013-05-29 16:06:00,79.4,68.7,29.66,SSE,165,9.0,21.0,70,0.00,CLR,SKC,0.00,WeatherDisplay:10.37,2013-05-29 21:06:00,
2013-05-29 16:11:00,79.4,68.4,29.65,SSE,168,15.0,28.0,69,0.00,CLR,SKC,0.00,WeatherDisplay:10.37,2013-05-29 21:11:00,
2013-05-29 16:21:00,79.3,68.7,29.64,SSE,161,10.0,20.0,70,0.00,CLR,SKC,0.00,WeatherDisplay:10.37,2013-05-29 21:21:00,
2013-05-29 16:31:00,79.3,67.8,29.64,South,190,17.0,30.0,68,0.00,CLR,SKC,0.00,WeatherDisplay:10.37,2013-05-29 21:31:00,
2013-05-29 16:36:00,79.1,68.1,29.64,South,187,13.0,36.0,69,0.00,CLR,SKC,0.00,WeatherDisplay:10.37,2013-05-29 21:36:00,
2013-05-29 16:41:00,78.9,67.9,29.63,SSW,192,12.0,36.0,69,0.00,CLR,SKC,0.00,WeatherDisplay:10.37,2013-05-29 21:41:00,
2013-05-29 16:51:00,78.6,67.6,29.63,South,188,18.0,32.0,69,0.00,CLR,SKC,0.00,WeatherDisplay:10.37,2013-05-29 21:51:00,
2013-05-29 17:01:00,78.4,67.8,29.63,SSE,156,12.0,26.0,70,0.00,CLR,SKC,0.00,WeatherDisplay:10.37,2013-05-29 22:01:00,
2013-05-29 17:06:00,78.4,67.8,29.63,South,171,13.0,26.0,70,0.00,CLR,SKC,0.00,WeatherDisplay:10.37,2013-05-29 22:06:00,
2013-05-29 17:11:00,78.3,67.7,29.63,SSW,196,16.0,26.0,70,0.00,CLR,SKC,0.00,WeatherDisplay:10.37,2013-05-29 22:11:00,
2013-05-29 17:21:00,78.2,67.6,29.63,SSE,155,9.0,22.0,70,0.00,CLR,SKC,0.00,WeatherDisplay:10.37,2013-05-29 22:21:00,
2013-05-29 17:31:00,78.1,67.5,29.63,SSW,192,13.0,34.0,70,0.00,CLR,SKC,0.00,WeatherDisplay:10.37,2013-05-29 22:31:00,
2013-05-29 17:41:00,77.7,66.7,29.63,South,173,17.0,34.0,69,0.00,CLR,SKC,0.00,WeatherDisplay:10.37,2013-05-29 22:41:00,
2013-05-29 17:51:00,77.6,66.6,29.62,South,179,14.0,26.0,69,0.00,CLR,SKC,0.00,WeatherDisplay:10.37,2013-05-29 22:51:00,
2013-05-29 17:56:00,77.7,67.2,29.62,South,190,10.0,20.0,70,0.00,CLR,SKC,0.00,WeatherDisplay:10.37,2013-05-29 22:56:00,
2013-05-29 18:01:00,77.6,66.6,29.61,SSE,168,10.0,21.0,69,0.00,CLR,SKC,0.00,WeatherDisplay:10.37,2013-05-29 23:01:00,
2013-05-29 18:06:00,77.4,66.9,29.61,South,181,10.0,19.0,70,0.00,CLR,SKC,0.00,WeatherDisplay:10.37,2013-05-29 23:06:00,
2013-05-29 18:11:00,77.5,67.0,29.59,SSE,164,10.0,24.0,70,0.00,CLR,SKC,0.00,WeatherDisplay:10.37,2013-05-29 23:11:00,
2013-05-29 18:16:00,77.7,67.2,29.59,SSE,151,7.0,30.0,70,0.00,CLR,SKC,0.00,WeatherDisplay:10.37,2013-05-29 23:16:00,
2013-05-29 18:21:00,77.9,67.3,29.58,SSE,149,12.0,30.0,70,0.00,CLR,SKC,0.00,WeatherDisplay:10.37,2013-05-29 23:21:00,
2013-05-29 18:31:00,77.9,67.4,29.58,South,180,10.0,30.0,70,0.00,CLR,SKC,0.00,WeatherDisplay:10.37,2013-05-29 23:31:00,
2013-05-29 18:41:00,77.9,67.3,29.59,South,188,7.0,20.0,70,0.00,CLR,SKC,0.00,WeatherDisplay:10.37,2013-05-29 23:41:00,
2013-05-29 18:51:00,77.9,67.3,29.60,South,177,10.0,18.0,70,0.00,CLR,SKC,0.00,WeatherDisplay:10.37,2013-05-29 23:51:00,
2013-05-29 18:56:00,77.8,67.2,29.60,South,190,13.0,19.0,70,0.00,CLR,SKC,0.00,WeatherDisplay:10.37,2013-05-29 23:56:00,
2013-05-29 19:06:00,77.8,67.2,29.59,South,182,15.0,28.0,70,0.00,CLR,SKC,0.00,WeatherDisplay:10.37,2013-05-30 00:06:00,
2013-05-29 19:11:00,77.8,67.2,29.59,South,180,10.0,29.0,70,0.00,CLR,SKC,0.00,WeatherDisplay:10.37,2013-05-30 00:11:00,
2013-05-29 19:21:00,77.7,67.2,29.61,South,173,10.0,21.0,70,0.00,CLR,SKC,0.00,WeatherDisplay:10.37,2013-05-30 00:21:00,
2013-05-29 19:26:00,77.7,66.7,29.61,SSE,168,9.0,21.0,69,0.00,CLR,SKC,0.00,WeatherDisplay:10.37,2013-05-30 00:26:00,
2013-05-29 19:31:00,77.7,67.2,29.61,South,184,7.0,24.0,70,0.00,CLR,SKC,0.00,WeatherDisplay:10.37,2013-05-30 00:31:00,
2013-05-29 19:36:00,77.7,67.2,29.61,South,188,12.0,24.0,70,0.00,CLR,SKC,0.00,WeatherDisplay:10.37,2013-05-30 00:36:00,
2013-05-29 19:41:00,77.7,67.2,29.62,SSE,160,10.0,21.0,70,0.00,CLR,SKC,0.00,WeatherDisplay:10.37,2013-05-30 00:41:00,
2013-05-29 19:51:00,77.7,67.1,29.62,South,182,6.0,18.0,70,0.00,CLR,SKC,0.00,WeatherDisplay:10.37,2013-05-30 00:51:00,
2013-05-29 20:01:00,77.5,67.4,29.63,South,173,8.0,17.0,71,0.00,CLR,SKC,0.00,WeatherDisplay:10.37,2013-05-30 01:01:00,
2013-05-29 20:06:00,77.4,67.3,29.63,South,173,7.0,15.0,71,0.00,CLR,SKC,0.00,WeatherDisplay:10.37,2013-05-30 01:06:00,
2013-05-29 20:11:00,77.4,67.3,29.63,SSW,200,9.0,19.0,71,0.00,CLR,SKC,0.00,WeatherDisplay:10.37,2013-05-30 01:11:00,
2013-05-29 20:16:00,77.3,67.2,29.62,SSW,203,9.0,15.0,71,0.00,CLR,SKC,0.00,WeatherDisplay:10.37,2013-05-30 01:16:00,
2013-05-29 20:21:00,77.2,67.5,29.63,SSW,197,3.0,13.0,72,0.00,CLR,SKC,0.00,WeatherDisplay:10.37,2013-05-30 01:21:00,
2013-05-29 20:31:00,77.0,67.7,29.63,South,178,7.0,18.0,73,0.00,CLR,SKC,0.00,WeatherDisplay:10.37,2013-05-30 01:31:00,
2013-05-29 20:40:00,76.8,67.5,29.63,SSE,155,9.0,13.0,73,0.00,CLR,SKC,0.00,WeatherDisplay:10.37,2013-05-30 01:40:00,
2013-05-29 20:50:00,76.8,67.5,29.64,SSW,207,6.0,13.0,73,0.00,CLR,SKC,0.00,WeatherDisplay:10.37,2013-05-30 01:50:00,
2013-05-29 21:00:00,76.8,67.5,29.64,SSE,164,7.0,16.0,73,0.00,CLR,SKC,0.00,WeatherDisplay:10.37,2013-05-30 02:00:00,
2013-05-29 21:05:00,76.8,67.5,29.64,SSE,159,7.0,15.0,73,0.00,CLR,SKC,0.00,WeatherDisplay:10.37,2013-05-30 02:05:00,
2013-05-29 21:10:00,76.8,67.5,29.64,South,178,7.0,20.0,73,0.00,CLR,SKC,0.00,WeatherDisplay:10.37,2013-05-30 02:10:00,
2013-05-29 21:15:00,76.8,67.5,29.65,SSW,198,2.0,20.0,73,0.00,CLR,SKC,0.00,WeatherDisplay:10.37,2013-05-30 02:15:00,
2013-05-29 21:20:00,76.7,67.4,29.64,SSW,195,6.0,13.0,73,0.00,CLR,SKC,0.00,WeatherDisplay:10.37,2013-05-30 02:20:00,
2013-05-29 21:30:00,76.6,67.7,29.64,South,191,5.0,16.0,74,0.00,CLR,SKC,0.00,WeatherDisplay:10.37,2013-05-30 02:30:00,
2013-05-29 21:35:00,76.6,67.7,29.64,SSW,199,12.0,15.0,74,0.00,CLR,SKC,0.00,WeatherDisplay:10.37,2013-05-30 02:35:00,
2013-05-29 21:40:00,76.3,68.2,29.64,South,171,3.0,16.0,76,0.00,CLR,SKC,0.00,WeatherDisplay:10.37,2013-05-30 02:40:00,
2013-05-29 21:50:00,75.9,67.8,29.64,South,174,2.0,16.0,76,0.00,CLR,SKC,0.00,WeatherDisplay:10.37,2013-05-30 02:50:00,
2013-05-29 22:00:00,75.8,67.7,29.63,South,179,7.0,13.0,76,0.00,CLR,SKC,0.00,WeatherDisplay:10.37,2013-05-30 03:00:00,
2013-05-29 22:05:00,75.8,67.7,29.63,South,188,5.0,13.0,76,0.00,CLR,SKC,0.00,WeatherDisplay:10.37,2013-05-30 03:05:00,
2013-05-29 22:10:00,75.9,67.8,29.62,South,175,6.0,18.0,76,0.00,CLR,SKC,0.00,WeatherDisplay:10.37,2013-05-30 03:10:00,
2013-05-29 22:15:00,75.9,67.8,29.63,South,180,6.0,15.0,76,0.00,CLR,SKC,0.00,WeatherDisplay:10.37,2013-05-30 03:15:00,
2013-05-29 22:20:00,75.9,67.8,29.63,South,186,2.0,18.0,76,0.00,CLR,SKC,0.00,WeatherDisplay:10.37,2013-05-30 03:20:00,
2013-05-29 22:30:00,75.1,68.5,29.63,SSE,168,5.0,13.0,80,0.02,RA,SKC,0.03,WeatherDisplay:10.37,2013-05-30 03:30:00,
2013-05-29 22:40:00,73.6,68.4,29.63,South,169,6.0,13.0,84,0.01,RA,SKC,0.04,WeatherDisplay:10.37,2013-05-30 03:40:00,
2013-05-29 22:45:00,73.3,68.2,29.62,South,177,9.0,26.0,84,0.00,RA,SKC,0.04,WeatherDisplay:10.37,2013-05-30 03:45:00,
2013-05-29 22:55:00,72.9,68.1,29.63,South,175,10.0,18.0,85,0.00,CLR,SKC,0.04,WeatherDisplay:10.37,2013-05-30 03:55:00,
2013-05-29 23:00:00,72.7,68.3,29.63,South,172,9.0,18.0,86,0.00,CLR,SKC,0.04,WeatherDisplay:10.37,2013-05-30 04:00:00,
2013-05-29 23:05:00,72.5,68.1,29.63,South,190,7.0,18.0,86,0.00,CLR,SKC,0.04,WeatherDisplay:10.37,2013-05-30 04:05:00,
2013-05-29 23:10:00,72.1,68.0,29.64,South,187,10.0,30.0,87,0.01,RA,SKC,0.05,WeatherDisplay:10.37,2013-05-30 04:10:00,
2013-05-29 23:20:00,69.8,65.4,29.64,SW,216,6.0,21.0,86,0.01,RA,SKC,0.06,WeatherDisplay:10.37,2013-05-30 04:20:00,
2013-05-29 23:30:00,67.9,64.2,29.63,SSW,195,14.0,28.0,88,0.02,RA,SKC,0.09,WeatherDisplay:10.37,2013-05-30 04:30:00,
2013-05-29 23:40:00,66.4,63.1,29.63,SSW,195,7.0,24.0,89,0.00,RA,SKC,0.10,WeatherDisplay:10.37,2013-05-30 04:40:00,
2013-05-29 23:50:00,65.5,62.5,29.62,SSW,203,9.0,15.0,90,0.00,RA,SKC,0.11,WeatherDisplay:10.37,2013-05-30 04:50:00,